sensor_id;sensor_type;location;lat;lon;timestamp;temperature;humidity
12819;DHT22;6474;53.474;9.894;2023-03-01T00:00:04;-1.00;88.10
12819;DHT22;6474;53.474;9.894;2023-03-01T00:02:33;-1.00;88.20
12819;DHT22;6474;53.474;9.894;2023-03-01T00:05:07;-1.00;88.20
12819;DHT22;6474;53.474;9.894;2023-03-01T00:07:36;-1.00;88.10
12819;DHT22;6474;53.474;9.894;2023-03-01T00:10:04;-1.00;88.10
12819;DHT22;6474;53.474;9.894;2023-03-01T00:12:32;-1.00;88.10
12819;DHT22;6474;53.474;9.894;2023-03-01T00:15:00;-1.00;88.10
12819;DHT22;6474;53.474;9.894;2023-03-01T00:17:29;-1.00;88.20
12819;DHT22;6474;53.474;9.894;2023-03-01T00:19:57;-1.10;88.00
12819;DHT22;6474;53.474;9.894;2023-03-01T00:22:27;-1.10;88.00
12819;DHT22;6474;53.474;9.894;2023-03-01T00:24:55;-1.10;88.20
12819;DHT22;6474;53.474;9.894;2023-03-01T00:27:23;-1.10;88.20
12819;DHT22;6474;53.474;9.894;2023-03-01T00:29:52;-1.10;88.20
12819;DHT22;6474;53.474;9.894;2023-03-01T00:32:20;-1.10;88.20
12819;DHT22;6474;53.474;9.894;2023-03-01T00:34:49;-1.20;88.20
12819;DHT22;6474;53.474;9.894;2023-03-01T00:37:23;-1.20;88.10
12819;DHT22;6474;53.474;9.894;2023-03-01T00:39:51;-1.20;88.10
12819;DHT22;6474;53.474;9.894;2023-03-01T00:42:19;-1.20;87.90
12819;DHT22;6474;53.474;9.894;2023-03-01T00:44:47;-1.20;88.10
12819;DHT22;6474;53.474;9.894;2023-03-01T00:47:15;-1.30;88.00
12819;DHT22;6474;53.474;9.894;2023-03-01T00:49:43;-1.30;88.00
12819;DHT22;6474;53.474;9.894;2023-03-01T00:52:12;-1.30;87.90
12819;DHT22;6474;53.474;9.894;2023-03-01T00:54:40;-1.30;88.00
12819;DHT22;6474;53.474;9.894;2023-03-01T00:57:08;-1.30;88.00
12819;DHT22;6474;53.474;9.894;2023-03-01T00:59:36;-1.30;88.00
12819;DHT22;6474;53.474;9.894;2023-03-01T01:02:04;-1.30;88.10
12819;DHT22;6474;53.474;9.894;2023-03-01T01:04:32;-1.40;88.00
12819;DHT22;6474;53.474;9.894;2023-03-01T01:07:00;-1.40;88.10
12819;DHT22;6474;53.474;9.894;2023-03-01T01:09:29;-1.40;88.20
12819;DHT22;6474;53.474;9.894;2023-03-01T01:11:57;-1.40;88.30
12819;DHT22;6474;53.474;9.894;2023-03-01T01:14:25;-1.40;88.30
12819;DHT22;6474;53.474;9.894;2023-03-01T01:16:53;-1.40;88.20
12819;DHT22;6474;53.474;9.894;2023-03-01T01:19:21;-1.40;88.20
12819;DHT22;6474;53.474;9.894;2023-03-01T01:21:50;-1.40;88.20
12819;DHT22;6474;53.474;9.894;2023-03-01T01:24:18;-1.40;88.20
12819;DHT22;6474;53.474;9.894;2023-03-01T01:26:48;-1.40;88.30
12819;DHT22;6474;53.474;9.894;2023-03-01T01:29:16;-1.40;88.20
12819;DHT22;6474;53.474;9.894;2023-03-01T01:31:44;-1.40;88.10
12819;DHT22;6474;53.474;9.894;2023-03-01T01:34:14;-1.40;88.10
12819;DHT22;6474;53.474;9.894;2023-03-01T01:36:43;-1.40;88.20
12819;DHT22;6474;53.474;9.894;2023-03-01T01:39:13;-1.30;88.20
12819;DHT22;6474;53.474;9.894;2023-03-01T01:41:42;-1.40;88.00
12819;DHT22;6474;53.474;9.894;2023-03-01T01:44:15;-1.40;87.90
12819;DHT22;6474;53.474;9.894;2023-03-01T01:46:46;-1.40;87.90
12819;DHT22;6474;53.474;9.894;2023-03-01T01:49:22;-1.40;87.90
12819;DHT22;6474;53.474;9.894;2023-03-01T01:51:55;-1.50;88.00
12819;DHT22;6474;53.474;9.894;2023-03-01T01:54:27;-1.50;88.00
12819;DHT22;6474;53.474;9.894;2023-03-01T01:57:00;-1.50;88.20
12819;DHT22;6474;53.474;9.894;2023-03-01T01:59:34;-1.50;88.20
12819;DHT22;6474;53.474;9.894;2023-03-01T02:02:03;-1.50;88.30
12819;DHT22;6474;53.474;9.894;2023-03-01T02:04:32;-1.50;88.20
12819;DHT22;6474;53.474;9.894;2023-03-01T02:07:03;-1.60;88.20
12819;DHT22;6474;53.474;9.894;2023-03-01T02:09:33;-1.60;88.30
12819;DHT22;6474;53.474;9.894;2023-03-01T02:12:02;-1.60;88.20
12819;DHT22;6474;53.474;9.894;2023-03-01T02:14:32;-1.60;88.20
12819;DHT22;6474;53.474;9.894;2023-03-01T02:17:00;-1.60;88.10
12819;DHT22;6474;53.474;9.894;2023-03-01T02:19:39;-1.60;88.20
12819;DHT22;6474;53.474;9.894;2023-03-01T02:22:18;-1.60;88.20
12819;DHT22;6474;53.474;9.894;2023-03-01T02:25:05;-1.60;88.30
12819;DHT22;6474;53.474;9.894;2023-03-01T02:27:42;-1.60;88.30
12819;DHT22;6474;53.474;9.894;2023-03-01T02:30:13;-1.60;88.30
12819;DHT22;6474;53.474;9.894;2023-03-01T02:32:41;-1.60;88.30
12819;DHT22;6474;53.474;9.894;2023-03-01T02:35:11;-1.60;88.30
12819;DHT22;6474;53.474;9.894;2023-03-01T02:37:41;-1.60;88.40
12819;DHT22;6474;53.474;9.894;2023-03-01T02:40:12;-1.60;88.40
12819;DHT22;6474;53.474;9.894;2023-03-01T02:42:49;-1.60;88.40
12819;DHT22;6474;53.474;9.894;2023-03-01T02:45:19;-1.50;88.50
12819;DHT22;6474;53.474;9.894;2023-03-01T02:47:47;-1.50;88.40
12819;DHT22;6474;53.474;9.894;2023-03-01T02:50:38;-1.50;88.30
12819;DHT22;6474;53.474;9.894;2023-03-01T02:53:12;-1.50;88.50
12819;DHT22;6474;53.474;9.894;2023-03-01T02:55:42;-1.40;88.60
12819;DHT22;6474;53.474;9.894;2023-03-01T02:58:10;-1.40;88.60
12819;DHT22;6474;53.474;9.894;2023-03-01T03:00:41;-1.30;88.70
12819;DHT22;6474;53.474;9.894;2023-03-01T03:03:13;-1.20;88.80
12819;DHT22;6474;53.474;9.894;2023-03-01T03:05:41;-1.20;88.70
12819;DHT22;6474;53.474;9.894;2023-03-01T03:08:09;-1.10;88.60
12819;DHT22;6474;53.474;9.894;2023-03-01T03:10:39;-1.10;88.60
12819;DHT22;6474;53.474;9.894;2023-03-01T03:13:10;-1.10;88.50
12819;DHT22;6474;53.474;9.894;2023-03-01T03:15:40;-1.10;88.60
12819;DHT22;6474;53.474;9.894;2023-03-01T03:18:11;-1.10;88.50
12819;DHT22;6474;53.474;9.894;2023-03-01T03:20:41;-1.10;88.50
12819;DHT22;6474;53.474;9.894;2023-03-01T03:23:10;-1.00;88.40
12819;DHT22;6474;53.474;9.894;2023-03-01T03:25:38;-1.10;88.20
12819;DHT22;6474;53.474;9.894;2023-03-01T03:28:07;-1.10;88.30
12819;DHT22;6474;53.474;9.894;2023-03-01T03:30:39;-1.10;88.30
12819;DHT22;6474;53.474;9.894;2023-03-01T03:33:09;-1.10;88.40
12819;DHT22;6474;53.474;9.894;2023-03-01T03:35:41;-1.10;88.30
12819;DHT22;6474;53.474;9.894;2023-03-01T03:38:12;-1.10;88.20
12819;DHT22;6474;53.474;9.894;2023-03-01T03:40:45;-1.10;88.30
12819;DHT22;6474;53.474;9.894;2023-03-01T03:43:14;-1.10;88.40
12819;DHT22;6474;53.474;9.894;2023-03-01T03:45:45;-1.10;88.60
12819;DHT22;6474;53.474;9.894;2023-03-01T03:48:14;-1.10;88.70
12819;DHT22;6474;53.474;9.894;2023-03-01T03:50:47;-1.10;88.80
12819;DHT22;6474;53.474;9.894;2023-03-01T03:53:16;-1.00;88.90
12819;DHT22;6474;53.474;9.894;2023-03-01T03:55:44;-1.00;88.90
12819;DHT22;6474;53.474;9.894;2023-03-01T03:58:17;-0.90;89.00
12819;DHT22;6474;53.474;9.894;2023-03-01T04:00:50;-0.90;88.90
12819;DHT22;6474;53.474;9.894;2023-03-01T04:03:19;-0.90;88.70
12819;DHT22;6474;53.474;9.894;2023-03-01T04:05:48;-0.90;88.80
12819;DHT22;6474;53.474;9.894;2023-03-01T04:08:17;-0.90;88.90
12819;DHT22;6474;53.474;9.894;2023-03-01T04:10:47;-0.80;89.00
12819;DHT22;6474;53.474;9.894;2023-03-01T04:13:18;-0.80;89.00
12819;DHT22;6474;53.474;9.894;2023-03-01T04:15:48;-0.70;89.20
12819;DHT22;6474;53.474;9.894;2023-03-01T04:18:17;-0.70;89.10
12819;DHT22;6474;53.474;9.894;2023-03-01T04:20:46;-0.60;89.20
12819;DHT22;6474;53.474;9.894;2023-03-01T04:23:17;-0.60;89.80
12819;DHT22;6474;53.474;9.894;2023-03-01T04:25:48;-0.50;89.30
12819;DHT22;6474;53.474;9.894;2023-03-01T04:28:20;-0.50;89.20
12819;DHT22;6474;53.474;9.894;2023-03-01T04:30:50;-0.40;89.30
12819;DHT22;6474;53.474;9.894;2023-03-01T04:33:19;-0.40;89.30
12819;DHT22;6474;53.474;9.894;2023-03-01T04:35:47;-0.40;89.20
12819;DHT22;6474;53.474;9.894;2023-03-01T04:38:16;-0.30;89.30
12819;DHT22;6474;53.474;9.894;2023-03-01T04:40:44;-0.30;89.20
12819;DHT22;6474;53.474;9.894;2023-03-01T04:43:12;-0.20;89.30
12819;DHT22;6474;53.474;9.894;2023-03-01T04:45:42;-0.20;89.30
12819;DHT22;6474;53.474;9.894;2023-03-01T04:48:11;-0.20;89.30
12819;DHT22;6474;53.474;9.894;2023-03-01T04:50:39;-0.10;89.40
12819;DHT22;6474;53.474;9.894;2023-03-01T04:53:07;-0.10;89.30
12819;DHT22;6474;53.474;9.894;2023-03-01T04:55:35;0.00;89.40
12819;DHT22;6474;53.474;9.894;2023-03-01T04:58:03;0.00;89.40
12819;DHT22;6474;53.474;9.894;2023-03-01T05:00:31;0.00;89.40
12819;DHT22;6474;53.474;9.894;2023-03-01T05:03:00;0.10;89.50
12819;DHT22;6474;53.474;9.894;2023-03-01T05:05:31;0.10;89.50
12819;DHT22;6474;53.474;9.894;2023-03-01T05:08:01;0.10;89.50
12819;DHT22;6474;53.474;9.894;2023-03-01T05:10:30;0.10;89.50
12819;DHT22;6474;53.474;9.894;2023-03-01T05:12:59;0.20;89.60
12819;DHT22;6474;53.474;9.894;2023-03-01T05:15:29;0.20;89.50
12819;DHT22;6474;53.474;9.894;2023-03-01T05:17:59;0.20;89.50
12819;DHT22;6474;53.474;9.894;2023-03-01T05:20:27;0.20;89.50
12819;DHT22;6474;53.474;9.894;2023-03-01T05:22:59;0.20;89.60
12819;DHT22;6474;53.474;9.894;2023-03-01T05:25:32;0.20;89.60
12819;DHT22;6474;53.474;9.894;2023-03-01T05:28:01;0.30;89.70
12819;DHT22;6474;53.474;9.894;2023-03-01T05:30:31;0.30;89.70
12819;DHT22;6474;53.474;9.894;2023-03-01T05:33:00;0.30;89.70
12819;DHT22;6474;53.474;9.894;2023-03-01T05:35:28;0.30;89.70
12819;DHT22;6474;53.474;9.894;2023-03-01T05:38:00;0.30;89.60
12819;DHT22;6474;53.474;9.894;2023-03-01T05:40:28;0.40;89.70
12819;DHT22;6474;53.474;9.894;2023-03-01T05:42:57;0.40;89.70
12819;DHT22;6474;53.474;9.894;2023-03-01T05:45:26;0.40;89.70
12819;DHT22;6474;53.474;9.894;2023-03-01T05:47:55;0.40;89.80
12819;DHT22;6474;53.474;9.894;2023-03-01T05:50:25;0.40;89.80
12819;DHT22;6474;53.474;9.894;2023-03-01T05:52:57;0.40;89.80
12819;DHT22;6474;53.474;9.894;2023-03-01T05:55:28;0.40;89.80
12819;DHT22;6474;53.474;9.894;2023-03-01T05:57:58;0.40;89.90
12819;DHT22;6474;53.474;9.894;2023-03-01T06:00:26;0.40;89.80
12819;DHT22;6474;53.474;9.894;2023-03-01T06:02:55;0.50;89.90
12819;DHT22;6474;53.474;9.894;2023-03-01T06:05:24;0.50;89.90
12819;DHT22;6474;53.474;9.894;2023-03-01T06:07:52;0.50;89.90
12819;DHT22;6474;53.474;9.894;2023-03-01T06:10:21;0.50;89.90
12819;DHT22;6474;53.474;9.894;2023-03-01T06:12:51;0.50;89.90
12819;DHT22;6474;53.474;9.894;2023-03-01T06:15:19;0.60;90.00
12819;DHT22;6474;53.474;9.894;2023-03-01T06:17:47;0.50;89.90
12819;DHT22;6474;53.474;9.894;2023-03-01T06:20:17;0.50;89.90
12819;DHT22;6474;53.474;9.894;2023-03-01T06:22:45;0.60;90.00
12819;DHT22;6474;53.474;9.894;2023-03-01T06:25:15;0.60;90.00
12819;DHT22;6474;53.474;9.894;2023-03-01T06:27:44;0.60;90.00
12819;DHT22;6474;53.474;9.894;2023-03-01T06:30:17;0.60;90.00
12819;DHT22;6474;53.474;9.894;2023-03-01T06:32:45;0.70;90.00
12819;DHT22;6474;53.474;9.894;2023-03-01T06:35:14;0.70;90.00
12819;DHT22;6474;53.474;9.894;2023-03-01T06:37:44;0.70;90.00
12819;DHT22;6474;53.474;9.894;2023-03-01T06:40:13;0.70;90.00
12819;DHT22;6474;53.474;9.894;2023-03-01T06:42:47;0.80;90.00
12819;DHT22;6474;53.474;9.894;2023-03-01T06:45:18;0.80;90.00
12819;DHT22;6474;53.474;9.894;2023-03-01T06:47:47;0.80;90.10
12819;DHT22;6474;53.474;9.894;2023-03-01T06:50:16;0.80;90.10
12819;DHT22;6474;53.474;9.894;2023-03-01T06:52:44;0.90;90.10
12819;DHT22;6474;53.474;9.894;2023-03-01T06:55:12;0.90;90.10
12819;DHT22;6474;53.474;9.894;2023-03-01T06:57:40;0.90;90.10
12819;DHT22;6474;53.474;9.894;2023-03-01T07:00:09;0.90;90.10
12819;DHT22;6474;53.474;9.894;2023-03-01T07:02:39;1.00;90.10
12819;DHT22;6474;53.474;9.894;2023-03-01T07:05:07;1.00;90.10
12819;DHT22;6474;53.474;9.894;2023-03-01T07:07:35;1.10;90.20
12819;DHT22;6474;53.474;9.894;2023-03-01T07:10:03;1.10;90.10
12819;DHT22;6474;53.474;9.894;2023-03-01T07:12:32;1.10;90.10
12819;DHT22;6474;53.474;9.894;2023-03-01T07:15:00;1.10;90.10
12819;DHT22;6474;53.474;9.894;2023-03-01T07:17:28;1.10;90.10
12819;DHT22;6474;53.474;9.894;2023-03-01T07:19:57;1.10;90.10
12819;DHT22;6474;53.474;9.894;2023-03-01T07:22:25;1.20;90.20
12819;DHT22;6474;53.474;9.894;2023-03-01T07:24:53;1.20;90.20
12819;DHT22;6474;53.474;9.894;2023-03-01T07:27:21;1.20;90.20
12819;DHT22;6474;53.474;9.894;2023-03-01T07:29:48;1.30;90.20
12819;DHT22;6474;53.474;9.894;2023-03-01T07:32:16;1.30;90.20
12819;DHT22;6474;53.474;9.894;2023-03-01T07:34:44;1.40;90.20
12819;DHT22;6474;53.474;9.894;2023-03-01T07:37:14;1.40;90.20
12819;DHT22;6474;53.474;9.894;2023-03-01T07:39:41;1.40;90.20
12819;DHT22;6474;53.474;9.894;2023-03-01T07:42:09;1.50;90.20
12819;DHT22;6474;53.474;9.894;2023-03-01T07:44:37;1.50;90.20
12819;DHT22;6474;53.474;9.894;2023-03-01T07:47:05;1.50;90.20
12819;DHT22;6474;53.474;9.894;2023-03-01T07:49:33;1.60;90.20
12819;DHT22;6474;53.474;9.894;2023-03-01T07:52:01;1.60;90.20
12819;DHT22;6474;53.474;9.894;2023-03-01T07:54:30;1.70;90.30
12819;DHT22;6474;53.474;9.894;2023-03-01T07:56:58;1.70;90.30
12819;DHT22;6474;53.474;9.894;2023-03-01T07:59:26;1.80;90.40
12819;DHT22;6474;53.474;9.894;2023-03-01T08:01:57;1.80;90.40
12819;DHT22;6474;53.474;9.894;2023-03-01T08:04:25;1.90;90.40
12819;DHT22;6474;53.474;9.894;2023-03-01T08:06:53;2.00;90.40
12819;DHT22;6474;53.474;9.894;2023-03-01T08:09:21;2.00;90.40
12819;DHT22;6474;53.474;9.894;2023-03-01T08:11:51;2.00;90.40
12819;DHT22;6474;53.474;9.894;2023-03-01T08:14:18;2.10;90.50
12819;DHT22;6474;53.474;9.894;2023-03-01T08:16:49;2.10;90.40
12819;DHT22;6474;53.474;9.894;2023-03-01T08:19:17;2.20;90.50
12819;DHT22;6474;53.474;9.894;2023-03-01T08:21:45;2.20;90.50
12819;DHT22;6474;53.474;9.894;2023-03-01T08:24:12;2.30;90.50
12819;DHT22;6474;53.474;9.894;2023-03-01T08:26:40;2.30;90.50
12819;DHT22;6474;53.474;9.894;2023-03-01T08:29:10;2.40;90.50
12819;DHT22;6474;53.474;9.894;2023-03-01T08:31:39;2.40;90.50
12819;DHT22;6474;53.474;9.894;2023-03-01T08:34:09;2.50;90.60
12819;DHT22;6474;53.474;9.894;2023-03-01T08:36:40;2.60;90.60
12819;DHT22;6474;53.474;9.894;2023-03-01T08:39:09;2.60;90.60
12819;DHT22;6474;53.474;9.894;2023-03-01T08:41:38;2.60;90.50
12819;DHT22;6474;53.474;9.894;2023-03-01T08:44:06;2.60;90.40
12819;DHT22;6474;53.474;9.894;2023-03-01T08:46:37;2.60;90.40
12819;DHT22;6474;53.474;9.894;2023-03-01T08:49:06;2.60;90.40
12819;DHT22;6474;53.474;9.894;2023-03-01T08:51:35;2.60;90.40
12819;DHT22;6474;53.474;9.894;2023-03-01T08:54:05;2.70;90.50
12819;DHT22;6474;53.474;9.894;2023-03-01T08:56:33;2.70;90.50
12819;DHT22;6474;53.474;9.894;2023-03-01T08:59:01;2.80;90.60
12819;DHT22;6474;53.474;9.894;2023-03-01T09:01:29;2.90;90.60
12819;DHT22;6474;53.474;9.894;2023-03-01T09:03:59;2.90;90.60
12819;DHT22;6474;53.474;9.894;2023-03-01T09:06:27;2.90;90.60
12819;DHT22;6474;53.474;9.894;2023-03-01T09:08:58;3.00;90.60
12819;DHT22;6474;53.474;9.894;2023-03-01T09:11:26;3.10;90.70
12819;DHT22;6474;53.474;9.894;2023-03-01T09:13:55;3.10;90.70
12819;DHT22;6474;53.474;9.894;2023-03-01T09:16:23;3.20;90.70
12819;DHT22;6474;53.474;9.894;2023-03-01T09:18:52;3.20;90.70
12819;DHT22;6474;53.474;9.894;2023-03-01T09:21:23;3.20;90.70
12819;DHT22;6474;53.474;9.894;2023-03-01T09:24:06;3.30;90.70
12819;DHT22;6474;53.474;9.894;2023-03-01T09:26:35;3.30;90.60
12819;DHT22;6474;53.474;9.894;2023-03-01T09:29:03;3.30;90.60
12819;DHT22;6474;53.474;9.894;2023-03-01T09:31:31;3.30;90.60
12819;DHT22;6474;53.474;9.894;2023-03-01T09:33:59;3.30;90.60
12819;DHT22;6474;53.474;9.894;2023-03-01T09:36:29;3.30;90.60
12819;DHT22;6474;53.474;9.894;2023-03-01T09:38:58;3.30;90.60
12819;DHT22;6474;53.474;9.894;2023-03-01T09:41:44;3.30;90.70
12819;DHT22;6474;53.474;9.894;2023-03-01T09:44:19;3.40;90.70
12819;DHT22;6474;53.474;9.894;2023-03-01T09:46:48;3.40;90.70
12819;DHT22;6474;53.474;9.894;2023-03-01T09:49:18;3.40;90.70
12819;DHT22;6474;53.474;9.894;2023-03-01T09:51:54;3.50;90.80
12819;DHT22;6474;53.474;9.894;2023-03-01T09:54:23;3.60;90.80
12819;DHT22;6474;53.474;9.894;2023-03-01T09:57:01;3.70;90.90
12819;DHT22;6474;53.474;9.894;2023-03-01T09:59:40;3.70;90.90
12819;DHT22;6474;53.474;9.894;2023-03-01T10:02:23;3.80;90.90
12819;DHT22;6474;53.474;9.894;2023-03-01T10:04:55;3.90;91.00
12819;DHT22;6474;53.474;9.894;2023-03-01T10:07:34;4.00;91.00
12819;DHT22;6474;53.474;9.894;2023-03-01T10:10:06;4.10;91.00
12819;DHT22;6474;53.474;9.894;2023-03-01T10:12:37;4.20;91.00
12819;DHT22;6474;53.474;9.894;2023-03-01T10:15:09;4.20;90.90
12819;DHT22;6474;53.474;9.894;2023-03-01T10:17:43;4.30;90.80
12819;DHT22;6474;53.474;9.894;2023-03-01T10:20:18;4.20;90.80
12819;DHT22;6474;53.474;9.894;2023-03-01T10:22:48;4.30;90.80
12819;DHT22;6474;53.474;9.894;2023-03-01T10:25:36;4.20;90.80
12819;DHT22;6474;53.474;9.894;2023-03-01T10:28:17;4.20;90.80
12819;DHT22;6474;53.474;9.894;2023-03-01T10:30:45;4.30;90.90
12819;DHT22;6474;53.474;9.894;2023-03-01T10:33:17;4.30;90.80
12819;DHT22;6474;53.474;9.894;2023-03-01T10:35:45;4.40;90.90
12819;DHT22;6474;53.474;9.894;2023-03-01T10:38:17;4.50;91.00
12819;DHT22;6474;53.474;9.894;2023-03-01T10:40:52;4.60;91.00
12819;DHT22;6474;53.474;9.894;2023-03-01T10:43:21;4.70;91.00
12819;DHT22;6474;53.474;9.894;2023-03-01T10:45:49;4.80;91.00
12819;DHT22;6474;53.474;9.894;2023-03-01T10:48:20;4.80;90.90
12819;DHT22;6474;53.474;9.894;2023-03-01T10:51:04;4.90;91.00
12819;DHT22;6474;53.474;9.894;2023-03-01T10:53:35;5.00;91.00
12819;DHT22;6474;53.474;9.894;2023-03-01T10:56:06;5.00;90.90
12819;DHT22;6474;53.474;9.894;2023-03-01T10:58:35;5.10;90.90
12819;DHT22;6474;53.474;9.894;2023-03-01T11:01:05;5.20;90.90
12819;DHT22;6474;53.474;9.894;2023-03-01T11:03:35;5.20;90.90
12819;DHT22;6474;53.474;9.894;2023-03-01T11:06:12;5.30;90.90
12819;DHT22;6474;53.474;9.894;2023-03-01T11:08:49;5.30;90.90
12819;DHT22;6474;53.474;9.894;2023-03-01T11:11:24;5.40;90.90
12819;DHT22;6474;53.474;9.894;2023-03-01T11:13:56;5.40;90.90
12819;DHT22;6474;53.474;9.894;2023-03-01T11:16:27;5.30;90.70
12819;DHT22;6474;53.474;9.894;2023-03-01T11:18:57;5.30;90.80
12819;DHT22;6474;53.474;9.894;2023-03-01T11:21:28;5.30;90.80
12819;DHT22;6474;53.474;9.894;2023-03-01T11:24:00;5.20;90.80
12819;DHT22;6474;53.474;9.894;2023-03-01T11:26:30;5.20;90.80
12819;DHT22;6474;53.474;9.894;2023-03-01T11:29:03;5.20;90.90
12819;DHT22;6474;53.474;9.894;2023-03-01T11:31:32;5.20;90.90
12819;DHT22;6474;53.474;9.894;2023-03-01T11:34:05;5.30;90.90
12819;DHT22;6474;53.474;9.894;2023-03-01T11:36:41;5.40;90.90
12819;DHT22;6474;53.474;9.894;2023-03-01T11:39:20;5.40;90.90
12819;DHT22;6474;53.474;9.894;2023-03-01T11:42:01;5.50;90.90
12819;DHT22;6474;53.474;9.894;2023-03-01T11:44:46;5.50;90.90
12819;DHT22;6474;53.474;9.894;2023-03-01T11:47:37;5.60;90.90
12819;DHT22;6474;53.474;9.894;2023-03-01T11:50:16;5.60;90.90
12819;DHT22;6474;53.474;9.894;2023-03-01T11:52:54;5.70;90.80
12819;DHT22;6474;53.474;9.894;2023-03-01T11:55:41;5.80;90.80
12819;DHT22;6474;53.474;9.894;2023-03-01T11:58:26;5.80;90.80
12819;DHT22;6474;53.474;9.894;2023-03-01T12:01:13;5.80;90.80
12819;DHT22;6474;53.474;9.894;2023-03-01T12:06:55;6.00;90.80
12819;DHT22;6474;53.474;9.894;2023-03-01T12:09:38;6.00;90.80
12819;DHT22;6474;53.474;9.894;2023-03-01T12:12:26;6.00;90.80
12819;DHT22;6474;53.474;9.894;2023-03-01T12:15:11;6.10;90.80
12819;DHT22;6474;53.474;9.894;2023-03-01T12:18:02;6.10;90.80
12819;DHT22;6474;53.474;9.894;2023-03-01T12:20:42;6.20;90.90
12819;DHT22;6474;53.474;9.894;2023-03-01T12:23:38;6.20;90.80
12819;DHT22;6474;53.474;9.894;2023-03-01T12:26:20;6.30;90.80
12819;DHT22;6474;53.474;9.894;2023-03-01T12:28:59;6.40;90.80
12819;DHT22;6474;53.474;9.894;2023-03-01T12:31:48;6.40;90.80
12819;DHT22;6474;53.474;9.894;2023-03-01T12:34:35;6.40;90.80
12819;DHT22;6474;53.474;9.894;2023-03-01T12:37:16;6.50;90.90
12819;DHT22;6474;53.474;9.894;2023-03-01T12:39:57;6.50;90.90
12819;DHT22;6474;53.474;9.894;2023-03-01T12:42:37;6.50;90.90
12819;DHT22;6474;53.474;9.894;2023-03-01T12:45:26;6.50;90.80
12819;DHT22;6474;53.474;9.894;2023-03-01T12:48:10;6.50;90.90
12819;DHT22;6474;53.474;9.894;2023-03-01T12:50:43;6.50;90.80
12819;DHT22;6474;53.474;9.894;2023-03-01T12:53:21;6.50;90.90
12819;DHT22;6474;53.474;9.894;2023-03-01T12:55:50;6.50;90.90
12819;DHT22;6474;53.474;9.894;2023-03-01T12:58:25;6.50;90.90
12819;DHT22;6474;53.474;9.894;2023-03-01T13:01:17;6.60;90.90
12819;DHT22;6474;53.474;9.894;2023-03-01T13:04:07;6.60;90.90
12819;DHT22;6474;53.474;9.894;2023-03-01T13:06:43;6.60;90.90
12819;DHT22;6474;53.474;9.894;2023-03-01T13:09:20;6.60;90.90
12819;DHT22;6474;53.474;9.894;2023-03-01T13:11:50;6.60;91.10
12819;DHT22;6474;53.474;9.894;2023-03-01T13:14:44;6.70;91.00
12819;DHT22;6474;53.474;9.894;2023-03-01T13:17:40;6.70;90.90
12819;DHT22;6474;53.474;9.894;2023-03-01T13:20:14;6.70;91.00
12819;DHT22;6474;53.474;9.894;2023-03-01T13:22:42;6.70;91.00
12819;DHT22;6474;53.474;9.894;2023-03-01T13:25:20;6.80;91.00
12819;DHT22;6474;53.474;9.894;2023-03-01T13:30:57;6.80;91.00
12819;DHT22;6474;53.474;9.894;2023-03-01T13:33:44;6.80;91.00
12819;DHT22;6474;53.474;9.894;2023-03-01T13:36:46;6.90;91.00
12819;DHT22;6474;53.474;9.894;2023-03-01T13:39:29;6.90;91.00
12819;DHT22;6474;53.474;9.894;2023-03-01T13:41:59;6.90;91.00
12819;DHT22;6474;53.474;9.894;2023-03-01T13:44:31;6.90;90.90
12819;DHT22;6474;53.474;9.894;2023-03-01T13:47:05;6.90;90.90
12819;DHT22;6474;53.474;9.894;2023-03-01T13:49:45;6.90;90.90
12819;DHT22;6474;53.474;9.894;2023-03-01T13:52:34;6.90;90.90
12819;DHT22;6474;53.474;9.894;2023-03-01T13:55:04;6.90;90.90
12819;DHT22;6474;53.474;9.894;2023-03-01T13:57:35;6.90;90.90
12819;DHT22;6474;53.474;9.894;2023-03-01T14:00:06;6.90;90.90
12819;DHT22;6474;53.474;9.894;2023-03-01T14:02:35;6.90;90.90
12819;DHT22;6474;53.474;9.894;2023-03-01T14:05:09;6.90;90.90
12819;DHT22;6474;53.474;9.894;2023-03-01T14:07:38;6.90;90.90
12819;DHT22;6474;53.474;9.894;2023-03-01T14:10:11;7.00;91.30
12819;DHT22;6474;53.474;9.894;2023-03-01T14:12:44;7.00;90.90
12819;DHT22;6474;53.474;9.894;2023-03-01T14:15:19;6.90;90.90
12819;DHT22;6474;53.474;9.894;2023-03-01T14:17:55;7.00;90.90
12819;DHT22;6474;53.474;9.894;2023-03-01T14:20:28;6.90;90.90
12819;DHT22;6474;53.474;9.894;2023-03-01T14:22:59;6.90;90.90
12819;DHT22;6474;53.474;9.894;2023-03-01T14:25:31;6.90;90.90
12819;DHT22;6474;53.474;9.894;2023-03-01T14:28:03;6.80;90.80
12819;DHT22;6474;53.474;9.894;2023-03-01T14:30:36;6.80;90.80
12819;DHT22;6474;53.474;9.894;2023-03-01T14:33:19;6.80;90.90
12819;DHT22;6474;53.474;9.894;2023-03-01T14:35:59;6.80;90.90
12819;DHT22;6474;53.474;9.894;2023-03-01T14:38:32;6.80;90.90
12819;DHT22;6474;53.474;9.894;2023-03-01T14:41:03;6.80;90.90
12819;DHT22;6474;53.474;9.894;2023-03-01T14:43:33;6.90;90.90
12819;DHT22;6474;53.474;9.894;2023-03-01T14:46:01;6.80;90.80
12819;DHT22;6474;53.474;9.894;2023-03-01T14:48:30;6.80;90.80
12819;DHT22;6474;53.474;9.894;2023-03-01T14:51:00;6.80;90.80
12819;DHT22;6474;53.474;9.894;2023-03-01T14:53:29;6.80;90.80
12819;DHT22;6474;53.474;9.894;2023-03-01T14:56:15;6.80;90.80
12819;DHT22;6474;53.474;9.894;2023-03-01T14:58:44;6.70;90.70
12819;DHT22;6474;53.474;9.894;2023-03-01T15:01:15;6.70;90.70
12819;DHT22;6474;53.474;9.894;2023-03-01T15:03:46;6.70;90.70
12819;DHT22;6474;53.474;9.894;2023-03-01T15:06:18;6.70;90.70
12819;DHT22;6474;53.474;9.894;2023-03-01T15:08:49;6.60;90.70
12819;DHT22;6474;53.474;9.894;2023-03-01T15:11:20;6.60;90.70
12819;DHT22;6474;53.474;9.894;2023-03-01T15:13:51;6.60;90.70
12819;DHT22;6474;53.474;9.894;2023-03-01T15:16:21;6.50;90.60
12819;DHT22;6474;53.474;9.894;2023-03-01T15:18:52;6.50;90.60
12819;DHT22;6474;53.474;9.894;2023-03-01T15:21:24;6.50;90.60
12819;DHT22;6474;53.474;9.894;2023-03-01T15:23:56;6.50;90.90
12819;DHT22;6474;53.474;9.894;2023-03-01T15:26:28;6.40;90.60
12819;DHT22;6474;53.474;9.894;2023-03-01T15:28:59;6.40;90.60
12819;DHT22;6474;53.474;9.894;2023-03-01T15:31:29;6.40;90.60
12819;DHT22;6474;53.474;9.894;2023-03-01T15:34:09;6.40;90.60
12819;DHT22;6474;53.474;9.894;2023-03-01T15:36:42;6.30;90.60
12819;DHT22;6474;53.474;9.894;2023-03-01T15:39:32;6.30;90.60
12819;DHT22;6474;53.474;9.894;2023-03-01T15:42:05;6.30;90.50
12819;DHT22;6474;53.474;9.894;2023-03-01T15:44:35;6.30;90.60
12819;DHT22;6474;53.474;9.894;2023-03-01T15:47:26;6.20;90.50
12819;DHT22;6474;53.474;9.894;2023-03-01T15:49:55;6.20;90.50
12819;DHT22;6474;53.474;9.894;2023-03-01T15:52:27;6.20;90.50
12819;DHT22;6474;53.474;9.894;2023-03-01T15:54:58;6.10;90.40
12819;DHT22;6474;53.474;9.894;2023-03-01T15:57:26;6.10;90.30
12819;DHT22;6474;53.474;9.894;2023-03-01T15:59:55;6.00;90.30
12819;DHT22;6474;53.474;9.894;2023-03-01T16:02:23;6.00;90.30
12819;DHT22;6474;53.474;9.894;2023-03-01T16:04:52;5.90;90.30
12819;DHT22;6474;53.474;9.894;2023-03-01T16:07:20;5.80;90.20
12819;DHT22;6474;53.474;9.894;2023-03-01T16:09:49;5.80;90.20
12819;DHT22;6474;53.474;9.894;2023-03-01T16:12:17;5.70;90.20
12819;DHT22;6474;53.474;9.894;2023-03-01T16:14:47;5.70;90.20
12819;DHT22;6474;53.474;9.894;2023-03-01T16:17:15;5.60;90.20
12819;DHT22;6474;53.474;9.894;2023-03-01T16:19:43;5.60;90.20
12819;DHT22;6474;53.474;9.894;2023-03-01T16:22:11;5.50;90.10
12819;DHT22;6474;53.474;9.894;2023-03-01T16:24:39;5.40;90.10
12819;DHT22;6474;53.474;9.894;2023-03-01T16:27:09;5.40;90.10
12819;DHT22;6474;53.474;9.894;2023-03-01T16:29:37;5.40;90.20
12819;DHT22;6474;53.474;9.894;2023-03-01T16:32:05;5.30;90.10